Time;durP1;ratioP1;P1;durP2;ratioP2;P2;SDS_P1;SDS_P2;PMS_P1;PMS_P2;Temp;Humidity;BMP_temperature;BMP_pressure;BME280_temperature;BME280_humidity;BME280_pressure;Samples;Min_cycle;Max_cycle;Signal;HPM_P1;HPM_P2
2021/09/25 00:01:42;;;;;;;2.35;1.50;;;;;;;21.75;36.13;101512.13;144992;617;6002;-78
2021/09/25 00:04:09;;;;;;;2.90;1.52;;;;;;;21.77;36.33;101512.13;144992;663;6002;-77
2021/09/25 00:06:35;;;;;;;2.30;1.58;;;;;;;21.75;36.15;101517.41;144992;624;6002;-78
2021/09/25 00:09:03;;;;;;;3.67;1.42;;;;;;;21.75;36.56;101517.41;144992;594;6002;-79
2021/09/25 00:11:29;;;;;;;2.30;1.50;;;;;;;21.76;36.04;101521.81;144992;621;6002;-80
2021/09/25 00:13:57;;;;;;;2.40;1.30;;;;;;;21.76;35.66;101519.16;144992;666;6002;-79
2021/09/25 00:16:26;;;;;;;2.42;1.55;;;;;;;21.74;36.05;101516.53;144992;669;6002;-77
2021/09/25 00:18:57;;;;;;;3.22;1.50;;;;;;;21.74;36.03;101518.28;144992;565;6002;-77
2021/09/25 00:21:26;;;;;;;2.60;1.60;;;;;;;21.73;35.35;101519.19;144992;587;6002;-77
2021/09/25 00:23:52;;;;;;;1.58;1.35;;;;;;;21.70;36.21;101516.56;144992;571;6002;-77
2021/09/25 00:26:19;;;;;;;2.80;1.40;;;;;;;21.63;35.88;101515.69;144991;563;6002;-78
2021/09/25 00:28:46;;;;;;;1.58;1.48;;;;;;;21.60;35.16;101515.69;144992;627;6002;-78
2021/09/25 00:31:12;;;;;;;1.85;1.30;;;;;;;21.59;35.82;101507.78;144992;569;6002;-77
2021/09/25 00:33:39;;;;;;;3.30;1.60;;;;;;;21.58;35.51;101511.31;144992;577;6002;-78
2021/09/25 00:36:06;;;;;;;2.70;1.30;;;;;;;21.55;35.52;101499.88;144992;654;6002;-78
2021/09/25 00:38:32;;;;;;;2.75;1.60;;;;;;;21.54;35.24;101510.47;144992;566;6002;-77
2021/09/25 00:40:59;;;;;;;1.42;1.12;;;;;;;21.53;35.03;101509.56;144992;577;6002;-77
2021/09/25 00:43:25;;;;;;;1.77;1.33;;;;;;;21.53;35.75;101506.06;144992;566;6002;-78
2021/09/25 00:45:52;;;;;;;2.55;1.40;;;;;;;21.50;35.32;101503.41;144992;661;6002;-79
2021/09/25 00:48:18;;;;;;;3.05;1.45;;;;;;;21.49;35.58;101505.19;144992;656;6002;-78
2021/09/25 00:50:45;;;;;;;2.53;1.27;;;;;;;21.48;35.33;101507.81;144992;685;6002;-78
2021/09/25 00:53:11;;;;;;;2.80;1.35;;;;;;;21.44;35.25;101504.25;144992;622;6002;-78
2021/09/25 00:55:38;;;;;;;1.58;1.20;;;;;;;21.43;35.23;101501.63;144992;603;6002;-77
2021/09/25 00:58:06;;;;;;;1.75;1.40;;;;;;;21.39;35.76;101503.41;144992;635;6003;-78
2021/09/25 01:00:34;;;;;;;4.40;2.10;;;;;;;21.36;35.26;101500.78;144992;657;6002;-78
2021/09/25 01:03:01;;;;;;;3.67;2.00;;;;;;;21.35;35.43;101494.63;144992;614;6002;-75
2021/09/25 01:05:28;;;;;;;3.05;2.03;;;;;;;21.35;35.10;101499.91;144992;599;6003;-77
2021/09/25 01:07:54;;;;;;;3.40;2.37;;;;;;;21.36;35.58;101501.66;144992;629;6002;-76
2021/09/25 01:10:21;;;;;;;3.12;1.83;;;;;;;21.33;35.63;101513.97;144992;584;6002;-76
2021/09/25 01:12:48;;;;;;;3.10;1.58;;;;;;;21.33;35.34;101519.25;144991;564;6002;-77
2021/09/25 01:15:14;;;;;;;3.20;1.75;;;;;;;21.33;35.07;101525.44;144992;566;6002;-77
2021/09/25 01:17:41;;;;;;;2.87;1.40;;;;;;;21.32;34.90;101525.44;144992;600;6002;-76
2021/09/25 01:20:09;;;;;;;2.50;1.30;;;;;;;21.29;35.09;101523.69;144992;608;6002;-76
2021/09/25 01:22:36;;;;;;;2.97;1.48;;;;;;;21.28;35.05;101528.97;144992;630;6002;-76
2021/09/25 01:25:05;;;;;;;1.85;1.30;;;;;;;21.26;34.78;101525.44;144992;563;6002;-76
2021/09/25 01:27:32;;;;;;;3.17;1.55;;;;;;;21.24;35.04;101524.56;144992;633;6002;-79
2021/09/25 01:29:58;;;;;;;1.65;1.42;;;;;;;21.21;35.22;101522.81;144992;704;6002;-78
2021/09/25 01:32:25;;;;;;;1.65;1.30;;;;;;;21.20;35.04;101524.59;144992;632;6002;-79
2021/09/25 01:34:51;;;;;;;1.62;1.50;;;;;;;21.20;35.31;101513.12;144992;604;6002;-77
2021/09/25 01:37:18;;;;;;;2.17;1.20;;;;;;;21.20;35.07;101521.03;144992;627;6002;-77
2021/09/25 01:39:44;;;;;;;2.42;1.40;;;;;;;21.19;35.14;101512.25;144992;569;6002;-77
2021/09/25 01:42:11;;;;;;;5.78;1.70;;;;;;;21.18;35.01;101521.03;144992;577;6002;-78
2021/09/25 01:44:37;;;;;;;2.50;1.77;;;;;;;21.17;34.77;101514.03;144992;592;6002;-76
2021/09/25 01:47:04;;;;;;;1.92;1.62;;;;;;;21.15;35.66;101506.97;144992;654;6002;-75
2021/09/25 01:49:30;;;;;;;2.47;2.10;;;;;;;21.11;35.11;101518.41;144992;644;6002;-76
2021/09/25 01:51:57;;;;;;;3.85;2.20;;;;;;;21.09;35.93;101521.06;144992;571;6002;-78
2021/09/25 01:54:23;;;;;;;3.62;2.47;;;;;;;21.08;35.08;101521.06;144991;603;6002;-78
2021/09/25 01:56:50;;;;;;;4.30;2.45;;;;;;;21.04;36.02;101528.09;144992;612;6002;-76
2021/09/25 01:59:16;;;;;;;4.35;3.00;;;;;;;21.02;35.73;101528.09;144992;564;6002;-77
2021/09/25 02:01:43;;;;;;;4.25;3.00;;;;;;;21.01;35.98;101530.75;144992;565;6002;-77
2021/09/25 02:04:09;;;;;;;6.07;3.08;;;;;;;20.95;36.09;101528.09;144992;738;6002;-79
2021/09/25 02:06:36;;;;;;;5.85;3.10;;;;;;;20.90;37.48;101535.16;144992;667;6002;-78
2021/09/25 02:09:03;;;;;;;4.43;3.22;;;;;;;20.85;36.84;101543.06;144992;603;6002;-79
2021/09/25 02:11:29;;;;;;;6.55;3.50;;;;;;;20.88;36.90;101544.84;144992;599;6002;-78
2021/09/25 02:13:56;;;;;;;7.45;3.67;;;;;;;20.89;36.55;101549.25;144992;573;6002;-77
2021/09/25 02:16:22;;;;;;;7.03;3.75;;;;;;;20.92;36.13;101542.19;144992;639;6002;-77
2021/09/25 02:18:49;;;;;;;9.00;4.10;;;;;;;20.95;36.74;101546.56;144992;563;6002;-78
2021/09/25 02:21:15;;;;;;;7.72;4.07;;;;;;;20.98;37.14;101550.12;144992;658;6002;-77
2021/09/25 02:23:42;;;;;;;7.78;3.78;;;;;;;21.00;36.72;101556.28;144992;564;6002;-78
2021/09/25 02:26:08;;;;;;;5.45;3.12;;;;;;;21.01;36.55;101560.69;144992;633;6002;-77
2021/09/25 02:28:35;;;;;;;6.55;3.60;;;;;;;21.03;36.77;101555.41;144992;572;6002;-76
2021/09/25 02:31:02;;;;;;;4.32;3.03;;;;;;;21.05;36.70;101558.91;144992;587;6002;-77
2021/09/25 02:33:29;;;;;;;4.72;3.20;;;;;;;21.06;37.53;101557.12;144992;656;6002;-78
2021/09/25 02:35:57;;;;;;;5.68;3.35;;;;;;;21.07;36.47;101567.69;144992;600;6002;-77
2021/09/25 02:38:23;;;;;;;6.47;2.85;;;;;;;21.08;37.50;101565.94;144991;569;6002;-79
2021/09/25 02:40:50;;;;;;;6.12;3.05;;;;;;;21.06;37.24;101570.34;144992;696;6002;-78
2021/09/25 02:43:17;;;;;;;7.07;2.83;;;;;;;21.05;36.84;101571.25;144991;661;6002;-76
2021/09/25 02:45:43;;;;;;;5.40;2.60;;;;;;;21.05;37.12;101574.75;144992;575;6002;-75
2021/09/25 02:48:09;;;;;;;4.22;2.45;;;;;;;21.00;36.82;101573.88;144992;564;6002;-79
2021/09/25 02:50:36;;;;;;;4.22;2.62;;;;;;;20.94;37.30;101579.16;144992;575;6002;-78
2021/09/25 02:53:03;;;;;;;8.23;2.75;;;;;;;20.95;37.94;101581.78;144992;682;6002;-77
2021/09/25 02:55:29;;;;;;;8.07;2.87;;;;;;;20.91;37.24;101577.38;144992;591;6002;-78
2021/09/25 02:57:56;;;;;;;3.33;2.45;;;;;;;20.90;37.82;101588.78;144992;596;6002;-78
2021/09/25 03:00:23;;;;;;;4.28;2.62;;;;;;;20.89;37.63;101580.91;144992;706;6002;-76
2021/09/25 03:02:50;;;;;;;4.53;2.70;;;;;;;20.89;37.42;101584.41;144992;569;6002;-80
2021/09/25 03:05:16;;;;;;;4.62;2.62;;;;;;;20.90;37.37;101591.44;144992;705;6003;-78
2021/09/25 03:07:42;;;;;;;6.80;2.70;;;;;;;20.92;37.68;101594.97;144992;655;6002;-76
2021/09/25 03:10:10;;;;;;;5.40;2.87;;;;;;;20.93;37.36;101601.12;144992;657;6002;-78
2021/09/25 03:12:36;;;;;;;5.20;3.17;;;;;;;20.90;37.69;101602.00;144992;600;6003;-78
2021/09/25 03:15:04;;;;;;;6.20;2.97;;;;;;;20.83;37.91;101602.87;144992;591;6002;-77
2021/09/25 03:17:31;;;;;;;9.27;2.92;;;;;;;20.83;37.85;101602.87;144991;657;6002;-78
2021/09/25 03:19:57;;;;;;;4.07;2.80;;;;;;;20.80;38.13;101610.78;144992;569;6002;-77
2021/09/25 03:22:24;;;;;;;6.68;3.00;;;;;;;20.81;37.42;101607.28;144992;595;6002;-77
2021/09/25 03:24:50;;;;;;;7.20;2.60;;;;;;;20.79;38.00;101607.28;144992;698;6002;-77
2021/09/25 03:27:16;;;;;;;6.65;3.00;;;;;;;20.78;38.31;101608.16;144992;642;6002;-77
2021/09/25 03:29:43;;;;;;;4.62;2.87;;;;;;;20.79;37.77;101616.94;144992;580;6002;-77
2021/09/25 03:32:09;;;;;;;4.18;2.78;;;;;;;20.71;37.59;101611.66;144992;666;6002;-77
2021/09/25 03:34:36;;;;;;;4.85;2.95;;;;;;;20.72;37.46;101617.81;144992;598;6002;-78
2021/09/25 03:37:02;;;;;;;4.78;2.85;;;;;;;20.74;38.25;101622.19;144992;619;6002;-77
2021/09/25 03:39:29;;;;;;;4.62;2.97;;;;;;;20.75;38.05;101628.38;144992;622;6002;-77
2021/09/25 03:41:55;;;;;;;7.20;3.03;;;;;;;20.77;38.11;101629.25;144992;612;6002;-78
2021/09/25 03:44:22;;;;;;;9.50;3.45;;;;;;;20.77;37.98;101627.47;144992;576;6002;-76
2021/09/25 03:46:48;;;;;;;5.25;2.80;;;;;;;20.78;38.18;101628.38;144992;566;6002;-78
2021/09/25 03:49:15;;;;;;;6.43;3.10;;;;;;;20.75;37.74;101631.03;144992;620;6002;-78
2021/09/25 03:51:41;;;;;;;5.93;2.95;;;;;;;20.73;38.17;101633.66;144992;606;6002;-77
2021/09/25 03:54:08;;;;;;;4.95;2.92;;;;;;;20.73;38.20;101632.75;144992;606;6002;-77
2021/09/25 03:56:34;;;;;;;4.35;3.08;;;;;;;20.72;37.91;101639.78;144992;575;6002;-78
2021/09/25 03:59:01;;;;;;;5.47;2.65;;;;;;;20.72;38.10;101638.94;144992;611;6002;-75
2021/09/25 04:01:28;;;;;;;5.05;2.80;;;;;;;20.73;37.38;101646.84;144992;668;6002;-76
2021/09/25 04:03:56;;;;;;;3.78;2.53;;;;;;;20.76;37.80;101649.50;144991;581;6002;-79
2021/09/25 04:06:25;;;;;;;3.03;2.05;;;;;;;20.82;37.73;101657.44;144992;645;6002;-77
2021/09/25 04:08:51;;;;;;;4.10;2.28;;;;;;;20.84;37.58;101660.06;144992;599;6002;-76
2021/09/25 04:11:18;;;;;;;4.62;2.67;;;;;;;20.83;37.54;101655.66;144992;619;6002;-79
2021/09/25 04:13:44;;;;;;;6.80;2.30;;;;;;;20.81;37.70;101660.94;144992;655;6002;-78
2021/09/25 04:16:11;;;;;;;5.22;2.45;;;;;;;20.81;37.82;101655.66;144992;605;6002;-78
2021/09/25 04:18:37;;;;;;;5.00;2.55;;;;;;;20.77;37.80;101660.91;144992;583;6002;-78
2021/09/25 04:21:04;;;;;;;6.68;2.70;;;;;;;20.72;37.91;101668.81;144992;638;6002;-76
2021/09/25 04:23:30;;;;;;;6.32;2.90;;;;;;;20.69;38.00;101668.81;144992;576;6002;-77
2021/09/25 04:25:57;;;;;;;7.28;3.67;;;;;;;20.65;38.08;101667.06;144992;661;6002;-78
2021/09/25 04:28:23;;;;;;;5.62;3.17;;;;;;;20.62;38.27;101673.16;144992;656;6002;-78
2021/09/25 04:30:50;;;;;;;4.78;2.85;;;;;;;20.62;38.19;101665.25;144992;700;6002;-76
2021/09/25 04:33:16;;;;;;;5.82;3.40;;;;;;;20.64;38.16;101678.47;144992;668;6002;-78
2021/09/25 04:35:43;;;;;;;5.70;3.62;;;;;;;20.67;37.99;101674.97;144992;632;6002;-78
2021/09/25 04:38:09;;;;;;;8.25;3.70;;;;;;;20.67;38.25;101682.88;144992;608;6017;-76
2021/09/25 04:40:36;;;;;;;9.93;4.28;;;;;;;20.68;38.31;101679.34;144992;586;6002;-77
2021/09/25 04:43:03;;;;;;;8.40;3.90;;;;;;;20.62;38.38;101682.84;144992;593;6002;-78
2021/09/25 04:45:30;;;;;;;7.35;3.95;;;;;;;20.62;38.45;101682.84;144992;662;6002;-78
2021/09/25 04:47:56;;;;;;;6.22;3.55;;;;;;;20.62;38.48;101694.25;144992;623;6002;-77
2021/09/25 04:50:27;;;;;;;7.70;3.72;;;;;;;20.63;38.69;101696.03;144992;578;6002;-78
2021/09/25 04:52:53;;;;;;;6.78;3.53;;;;;;;20.63;38.51;101693.41;144992;587;6002;-77
2021/09/25 04:55:20;;;;;;;6.25;3.05;;;;;;;20.64;38.58;101694.28;144992;590;6002;-77
2021/09/25 04:57:46;;;;;;;8.05;4.12;;;;;;;20.67;38.59;101699.59;144992;564;6002;-77
2021/09/25 05:00:13;;;;;;;6.55;4.30;;;;;;;20.69;38.52;101704.87;144992;565;6002;-79
2021/09/25 05:02:40;;;;;;;7.22;3.70;;;;;;;20.72;38.32;101702.25;144992;652;6002;-78
2021/09/25 05:05:07;;;;;;;7.50;4.12;;;;;;;20.75;38.49;101702.25;144992;586;6002;-79
2021/09/25 05:07:36;;;;;;;6.20;3.58;;;;;;;20.78;38.52;101712.81;144992;662;6002;-77
2021/09/25 05:10:03;;;;;;;9.25;3.97;;;;;;;20.80;38.43;101705.78;144992;565;6002;-77
2021/09/25 05:12:29;;;;;;;6.70;3.70;;;;;;;20.83;38.57;101705.78;144992;582;6002;-77
2021/09/25 05:14:56;;;;;;;7.62;3.60;;;;;;;20.86;38.50;101716.34;144992;572;6002;-80
2021/09/25 05:17:22;;;;;;;6.65;3.80;;;;;;;20.87;38.61;101707.56;144992;581;6010;-77
2021/09/25 05:19:49;;;;;;;6.37;3.12;;;;;;;20.91;38.75;101716.38;144992;636;6002;-78
2021/09/25 05:22:15;;;;;;;8.48;3.67;;;;;;;20.94;38.70;101719.91;144992;574;6002;-79
2021/09/25 05:24:42;;;;;;;6.30;3.65;;;;;;;20.98;38.68;101718.13;144992;610;6002;-78
2021/09/25 05:27:08;;;;;;;7.22;3.87;;;;;;;21.02;38.62;101718.16;144992;588;6002;-79
2021/09/25 05:29:35;;;;;;;9.18;3.55;;;;;;;21.06;38.64;101715.53;144992;617;6002;-77
2021/09/25 05:32:02;;;;;;;8.30;3.80;;;;;;;21.10;38.62;101714.66;144992;569;6002;-80
2021/09/25 05:34:29;;;;;;;9.38;3.72;;;;;;;21.15;38.69;101720.81;144992;590;6002;-78
2021/09/25 05:36:56;;;;;;;8.27;3.60;;;;;;;21.19;38.71;101718.19;144992;623;6002;-78
2021/09/25 05:39:24;;;;;;;9.50;3.70;;;;;;;21.23;38.65;101720.84;144992;599;6002;-76
2021/09/25 05:41:51;;;;;;;6.75;3.62;;;;;;;21.28;38.67;101721.72;144992;612;6002;-79
2021/09/25 05:44:17;;;;;;;8.45;3.50;;;;;;;21.36;38.59;101727.88;144992;616;6002;-79
2021/09/25 05:46:44;;;;;;;7.70;3.58;;;;;;;21.43;38.67;101723.47;144992;591;6002;-79
2021/09/25 05:49:10;;;;;;;9.90;4.60;;;;;;;21.49;38.62;101723.53;144992;576;6002;-78
2021/09/25 05:51:37;;;;;;;10.80;4.40;;;;;;;21.55;38.82;101731.47;144992;596;6002;-79
2021/09/25 05:54:03;;;;;;;9.32;3.87;;;;;;;21.60;38.67;101737.63;144992;681;6002;-76
2021/09/25 05:56:30;;;;;;;7.32;4.05;;;;;;;21.67;38.71;101744.69;144992;651;6002;-78
2021/09/25 05:58:56;;;;;;;8.23;3.85;;;;;;;21.76;38.54;101738.50;144992;663;6002;-76
2021/09/25 06:01:22;;;;;;;7.78;3.70;;;;;;;21.84;38.58;101738.50;144992;616;6002;-78
2021/09/25 06:03:49;;;;;;;9.27;4.10;;;;;;;21.88;38.41;101745.56;144992;588;6002;-77
2021/09/25 06:06:15;;;;;;;11.00;4.87;;;;;;;21.93;38.53;101747.28;144993;605;6002;-77
2021/09/25 06:08:42;;;;;;;8.73;4.75;;;;;;;22.02;38.60;101742.91;144993;596;6002;-79
2021/09/25 06:11:08;;;;;;;5.43;4.30;;;;;;;22.10;38.44;101743.75;144993;598;6002;-79
2021/09/25 06:13:35;;;;;;;7.87;3.83;;;;;;;22.18;38.48;101749.03;144993;580;6002;-77
2021/09/25 06:16:01;;;;;;;8.10;3.60;;;;;;;22.27;38.51;101749.91;144993;633;6002;-77
2021/09/25 06:18:28;;;;;;;8.40;4.00;;;;;;;22.35;38.46;101755.19;144993;564;6003;-77
2021/09/25 06:20:54;;;;;;;6.12;4.00;;;;;;;22.46;38.19;101752.50;144993;628;6002;-77
2021/09/25 06:23:20;;;;;;;9.82;4.20;;;;;;;22.56;38.09;101763.97;144993;611;6002;-77
2021/09/25 06:25:47;;;;;;;9.45;4.25;;;;;;;22.67;38.06;101761.25;144993;569;6003;-77
2021/09/25 06:28:13;;;;;;;6.12;3.70;;;;;;;22.77;37.91;101763.84;144993;591;6002;-78
2021/09/25 06:30:40;;;;;;;6.72;4.03;;;;;;;22.89;38.14;101762.03;144993;563;6002;-78
2021/09/25 06:33:10;;;;;;;7.25;3.50;;;;;;;22.99;38.25;101771.72;144993;578;6002;-80
2021/09/25 06:35:37;;;;;;;7.32;3.67;;;;;;;23.10;38.07;101772.56;144993;587;6002;-71
2021/09/25 06:38:04;;;;;;;6.68;3.35;;;;;;;23.18;38.00;101778.69;144992;609;6002;-77
2021/09/25 06:40:30;;;;;;;10.20;3.83;;;;;;;23.30;37.89;101775.06;144992;558;6002;-80
2021/09/25 06:42:57;;;;;;;7.87;3.55;;;;;;;23.44;38.05;101785.59;144992;652;6002;-77
2021/09/25 06:45:24;;;;;;;5.75;3.42;;;;;;;23.57;37.68;101788.16;144992;570;6002;-79
2021/09/25 06:47:50;;;;;;;7.47;3.20;;;;;;;23.68;37.48;101791.59;144992;615;6002;-76
2021/09/25 06:50:17;;;;;;;5.97;2.83;;;;;;;23.83;37.76;101793.25;144992;569;6002;-78
2021/09/25 06:52:43;;;;;;;5.95;3.50;;;;;;;23.99;37.48;101799.31;144993;583;6002;-79
2021/09/25 06:55:10;;;;;;;8.13;3.47;;;;;;;24.14;37.41;101796.53;144993;569;6002;-79
2021/09/25 06:57:37;;;;;;;8.02;3.45;;;;;;;24.30;37.50;101799.91;144993;587;6002;-79
2021/09/25 07:00:04;;;;;;;8.88;4.18;;;;;;;24.42;37.31;101802.44;144993;577;6002;-76
2021/09/25 07:02:35;;;;;;;9.05;4.00;;;;;;;24.57;37.17;101797.91;144992;587;6002;-76
2021/09/25 07:05:02;;;;;;;10.48;4.00;;;;;;;24.73;37.31;101801.25;144993;643;6002;-77
2021/09/25 07:07:29;;;;;;;7.78;4.00;;;;;;;24.90;37.18;101801.91;144993;575;6002;-78
2021/09/25 07:09:55;;;;;;;5.12;3.80;;;;;;;25.04;37.16;101807.06;144993;569;6002;-78
2021/09/25 07:12:21;;;;;;;7.03;3.50;;;;;;;25.18;36.40;101804.19;144993;589;6002;-78
2021/09/25 07:14:48;;;;;;;9.43;4.70;;;;;;;25.35;36.44;101812.84;144993;573;6002;-76
2021/09/25 07:17:14;;;;;;;9.52;3.75;;;;;;;25.50;36.58;101817.06;144993;578;6002;-76
2021/09/25 07:19:41;;;;;;;7.03;3.50;;;;;;;25.65;36.19;101818.59;144993;577;6002;-77
2021/09/25 07:22:08;;;;;;;6.25;4.10;;;;;;;25.79;36.29;101812.19;144993;636;6002;-76
2021/09/25 07:24:36;;;;;;;9.57;4.07;;;;;;;25.97;36.28;101813.69;144993;581;6002;-78
2021/09/25 07:27:02;;;;;;;6.72;3.47;;;;;;;26.15;35.98;101821.38;144993;585;6002;-76
2021/09/25 07:29:29;;;;;;;7.35;3.03;;;;;;;26.37;35.88;101815.63;144993;571;6002;-77
2021/09/25 07:31:55;;;;;;;7.87;3.53;;;;;;;26.58;35.65;101820.56;144993;592;6002;-77
2021/09/25 07:34:22;;;;;;;6.97;3.22;;;;;;;26.73;35.65;101814.06;144993;602;6002;-75
2021/09/25 07:36:49;;;;;;;5.85;3.35;;;;;;;26.86;35.60;101820.00;144993;572;6002;-76
2021/09/25 07:39:15;;;;;;;7.12;3.03;;;;;;;27.01;35.76;101821.47;144993;582;6002;-70
2021/09/25 07:41:42;;;;;;;6.93;3.10;;;;;;;27.20;35.70;101816.59;144993;584;6002;-67
2021/09/25 07:44:08;;;;;;;9.18;4.03;;;;;;;27.36;35.69;101819.81;144993;569;6002;-71
2021/09/25 07:46:35;;;;;;;5.57;3.40;;;;;;;27.48;35.26;101824.88;144994;563;5002;-71
2021/09/25 07:49:02;;;;;;;5.65;3.83;;;;;;;27.61;35.18;101822.81;144993;658;5002;-71
2021/09/25 07:51:29;;;;;;;7.85;4.25;;;;;;;27.72;35.20;101819.87;144994;587;5002;-68
2021/09/25 07:53:56;;;;;;;9.10;6.15;;;;;;;27.82;35.00;101823.19;144994;914;5002;-70
2021/09/25 07:56:22;;;;;;;10.27;5.45;;;;;;;27.84;34.75;101821.38;144994;578;5002;-70
2021/09/25 07:58:49;;;;;;;7.00;3.90;;;;;;;27.87;34.79;101826.59;144994;914;5002;-70
2021/09/25 08:01:16;;;;;;;4.62;3.60;;;;;;;27.91;34.55;101827.44;144994;914;5002;-70
2021/09/25 08:03:43;;;;;;;5.10;3.45;;;;;;;28.04;34.50;101823.56;144994;635;5002;-71
2021/09/25 08:06:11;;;;;;;6.80;5.30;;;;;;;28.18;34.42;101826.75;144994;591;5002;-68
2021/09/25 08:08:37;;;;;;;5.03;4.43;;;;;;;28.32;34.40;101828.19;144994;781;5002;-69
2021/09/25 08:11:04;;;;;;;4.85;3.62;;;;;;;28.42;34.37;101829.66;144993;564;5002;-72
2021/09/25 08:13:30;;;;;;;7.78;4.18;;;;;;;28.52;34.21;101824.94;144994;696;5002;-72
2021/09/25 08:15:57;;;;;;;10.85;7.07;;;;;;;28.62;34.10;101828.25;144994;582;5002;-71
2021/09/25 08:18:23;;;;;;;12.30;6.20;;;;;;;28.74;34.03;101817.22;144994;571;5002;-71
2021/09/25 08:20:51;;;;;;;6.55;4.30;;;;;;;28.83;31.28;101819.63;144994;573;5002;-72
2021/09/25 08:23:17;;;;;;;5.12;2.75;;;;;;;28.69;33.36;101819.16;144994;563;5002;-71
2021/09/25 08:25:43;;;;;;;6.70;2.90;;;;;;;28.65;33.34;101829.06;144994;672;5003;-71
2021/09/25 08:28:10;;;;;;;4.62;3.37;;;;;;;28.63;33.06;101822.00;144994;564;5002;-72
2021/09/25 08:30:37;;;;;;;8.27;3.60;;;;;;;28.63;33.14;101822.88;144994;702;5002;-71
2021/09/25 08:33:03;;;;;;;6.32;2.87;;;;;;;28.74;32.09;101819.91;144994;640;5002;-73
2021/09/25 08:35:30;;;;;;;7.32;3.70;;;;;;;28.91;33.19;101822.94;144994;587;5002;-74
2021/09/25 08:37:57;;;;;;;5.97;2.87;;;;;;;29.05;31.79;101819.87;144994;678;5002;-73
2021/09/25 08:40:23;;;;;;;6.75;3.20;;;;;;;29.19;32.81;101822.16;144994;685;5002;-75
2021/09/25 08:42:51;;;;;;;6.18;4.07;;;;;;;29.30;32.54;101822.69;144994;604;5002;-75
2021/09/25 08:45:19;;;;;;;4.12;3.40;;;;;;;29.43;32.73;101822.28;144994;677;5002;-75
2021/09/25 08:47:46;;;;;;;4.82;2.47;;;;;;;29.49;31.68;101816.75;144994;597;5002;-75
2021/09/25 08:50:14;;;;;;;3.17;2.50;;;;;;;29.49;31.63;101825.66;144994;565;5002;-72
2021/09/25 08:52:42;;;;;;;5.87;3.60;;;;;;;29.38;31.34;101816.22;144994;600;5002;-76
2021/09/25 08:55:10;;;;;;;4.78;3.70;;;;;;;29.30;31.79;101822.69;144994;584;5002;-74
2021/09/25 08:57:39;;;;;;;4.85;2.70;;;;;;;29.29;31.82;101814.72;144994;606;5002;-77
2021/09/25 09:00:52;;;;;;;7.10;3.30;;;;;;;29.33;31.24;101820.84;144994;591;5002;-73
2021/09/25 09:03:46;;;;;;;12.10;9.32;;;;;;;29.47;31.98;101816.78;144994;581;5002;-74
2021/09/25 09:06:25;;;;;;;4.90;3.03;;;;;;;29.51;31.42;101822.06;144994;571;5004;-74
2021/09/25 09:08:53;;;;;;;7.53;5.82;;;;;;;29.34;30.44;101814.59;144994;646;5004;-76
2021/09/25 09:11:21;;;;;;;4.30;2.92;;;;;;;29.29;31.14;101818.28;144994;582;5004;-76
2021/09/25 09:13:50;;;;;;;4.95;2.65;;;;;;;28.94;31.30;101822.88;144994;599;5004;-76
2021/09/25 09:16:18;;;;;;;8.30;3.00;;;;;;;28.53;31.77;101830.25;144994;631;5004;-72
2021/09/25 09:18:47;;;;;;;5.32;2.85;;;;;;;28.31;32.28;101821.06;144993;579;5004;-69
2021/09/25 09:21:21;;;;;;;5.12;2.53;;;;;;;28.03;32.77;101821.78;144994;586;5002;-72
2021/09/25 09:24:02;;;;;;;5.32;3.47;;;;;;;27.65;33.55;101820.97;144994;582;5002;-70
2021/09/25 09:26:41;;;;;;;4.00;2.85;;;;;;;27.75;33.06;101826.94;144994;596;5002;-72
2021/09/25 09:29:08;;;;;;;7.18;3.53;;;;;;;27.53;33.51;101829.25;144994;676;5002;-70
2021/09/25 09:31:37;;;;;;;4.28;3.17;;;;;;;27.42;33.38;101821.50;144994;591;5002;-71
2021/09/25 09:34:06;;;;;;;4.65;2.72;;;;;;;27.52;33.20;101820.34;144994;597;5002;-74
2021/09/25 09:36:43;;;;;;;7.28;2.90;;;;;;;27.25;34.26;101820.06;144994;656;5002;-74
2021/09/25 09:39:18;;;;;;;5.40;2.58;;;;;;;27.32;32.75;101824.38;144994;585;5002;-75
2021/09/25 09:41:52;;;;;;;5.12;2.25;;;;;;;27.25;33.22;101814.75;144994;662;5002;-72
2021/09/25 09:44:23;;;;;;;2.60;2.30;;;;;;;27.23;33.45;101816.53;144994;610;5002;-74
2021/09/25 09:46:55;;;;;;;4.82;3.17;;;;;;;27.18;33.36;101825.56;144994;563;5002;-76
2021/09/25 09:49:42;;;;;;;5.97;2.42;;;;;;;27.12;33.81;101827.47;144994;579;5002;-71
2021/09/25 09:52:13;;;;;;;2.30;1.95;;;;;;;26.98;33.83;101824.22;144994;561;5004;-73
2021/09/25 09:54:44;;;;;;;2.85;2.10;;;;;;;27.07;33.87;101824.00;144994;561;5004;-74
2021/09/25 09:57:19;;;;;;;2.20;2.00;;;;;;;27.11;32.71;101824.84;144994;583;5004;-72
2021/09/25 09:59:48;;;;;;;3.80;2.10;;;;;;;27.12;32.51;101832.78;144994;587;5004;-75
2021/09/25 10:02:15;;;;;;;2.00;1.80;;;;;;;26.98;33.27;101829.56;144994;666;5004;-73
2021/09/25 10:04:42;;;;;;;2.85;2.20;;;;;;;26.94;33.75;101828.72;144994;590;5004;-71
2021/09/25 10:07:09;;;;;;;3.05;2.03;;;;;;;26.85;34.52;101830.69;144994;600;5004;-74
2021/09/25 10:09:38;;;;;;;4.05;2.20;;;;;;;26.82;34.63;101829.00;144994;577;5004;-73
2021/09/25 10:12:07;;;;;;;3.10;2.08;;;;;;;26.74;35.10;101829.16;144994;592;5004;-74
2021/09/25 10:14:37;;;;;;;5.65;2.50;;;;;;;26.73;35.39;101827.38;144994;685;5004;-73
2021/09/25 10:17:10;;;;;;;3.47;2.60;;;;;;;26.63;35.90;101823.13;144993;910;5005;-72
2021/09/25 10:19:39;;;;;;;3.85;2.40;;;;;;;26.54;36.26;101820.63;144994;913;5002;-75
2021/09/25 10:22:21;;;;;;;6.68;2.28;;;;;;;26.66;36.66;101822.19;144994;612;5002;-72
2021/09/25 10:24:59;;;;;;;5.60;2.35;;;;;;;26.63;37.46;101817.81;144994;576;5002;-74
2021/09/25 10:27:34;;;;;;;2.55;2.00;;;;;;;26.74;36.63;101821.16;144994;569;5002;-74
2021/09/25 10:30:04;;;;;;;2.70;2.28;;;;;;;26.57;36.58;101802.81;144994;778;5002;-72
2021/09/25 10:32:50;;;;;;;4.75;3.08;;;;;;;26.71;37.11;101807.91;144994;790;5002;-72
2021/09/25 10:35:23;;;;;;;3.72;2.55;;;;;;;26.97;35.81;101811.78;144994;565;5002;-74
2021/09/25 10:37:52;;;;;;;2.70;2.30;;;;;;;27.05;36.01;101804.50;144994;571;5002;-73
2021/09/25 10:40:24;;;;;;;5.72;2.85;;;;;;;27.17;35.00;101800.72;144994;582;5002;-71
2021/09/25 10:42:58;;;;;;;3.80;2.62;;;;;;;27.16;35.17;101790.94;144994;822;5002;-75
2021/09/25 10:45:35;;;;;;;8.05;3.42;;;;;;;27.18;33.65;101790.91;144993;578;5002;-73
2021/09/25 10:48:28;;;;;;;4.37;3.03;;;;;;;27.40;34.70;101792.19;144994;569;5002;-73
2021/09/25 10:51:01;;;;;;;4.20;2.47;;;;;;;27.56;34.36;101789.19;144994;558;5002;-67
2021/09/25 10:53:37;;;;;;;3.75;2.87;;;;;;;27.54;33.59;101789.22;144994;861;5002;-76
2021/09/25 10:56:06;;;;;;;3.60;2.22;;;;;;;27.59;32.66;101789.97;144994;570;5002;-74
2021/09/25 10:58:35;;;;;;;2.50;2.20;;;;;;;27.48;32.59;101784.88;144994;649;5002;-74
2021/09/25 11:01:18;;;;;;;2.30;2.10;;;;;;;27.56;32.76;101778.50;144994;606;5002;-72
2021/09/25 11:03:58;;;;;;;3.67;2.83;;;;;;;27.63;30.16;101785.44;144994;591;5002;-70
2021/09/25 11:06:52;;;;;;;4.85;3.15;;;;;;;27.69;31.37;101787.94;144994;672;5002;-74
2021/09/25 11:09:44;;;;;;;5.97;2.65;;;;;;;27.53;26.75;101783.91;144994;682;5004;-72
2021/09/25 11:12:17;;;;;;;4.35;3.35;;;;;;;27.53;27.16;101776.78;144994;680;5002;-74
2021/09/25 11:14:54;;;;;;;8.68;6.05;;;;;;;27.57;28.73;101780.25;144994;581;5002;-72
2021/09/25 11:17:27;;;;;;;5.75;2.40;;;;;;;27.65;29.37;101768.47;144994;603;5002;-71
2021/09/25 11:20:08;;;;;;;2.90;2.25;;;;;;;27.68;29.44;101762.22;144994;563;5002;-71
2021/09/25 11:22:45;;;;;;;3.53;2.30;;;;;;;27.77;29.71;101772.63;144994;684;5002;-72
2021/09/25 11:25:16;;;;;;;4.12;2.50;;;;;;;27.78;29.37;101773.50;144994;606;5004;-72
2021/09/25 11:27:53;;;;;;;2.30;1.90;;;;;;;27.84;28.32;101768.03;144994;581;5004;-70
2021/09/25 11:30:25;;;;;;;2.30;2.10;;;;;;;27.86;29.51;101763.50;144994;587;5004;-76
2021/09/25 11:33:00;;;;;;;3.50;2.17;;;;;;;27.92;29.42;101762.47;144994;613;5004;-72
2021/09/25 11:35:37;;;;;;;5.37;2.22;;;;;;;27.96;29.63;101762.37;144994;696;5004;-72
2021/09/25 11:38:12;;;;;;;2.40;1.70;;;;;;;27.88;30.62;101759.00;144994;583;5004;-73
2021/09/25 11:40:49;;;;;;;2.92;2.15;;;;;;;27.82;30.58;101768.06;144994;587;5004;-70